createdAt,value
2022-10-10T00:01:28.795Z,82.29
2022-10-10T00:03:55.888Z,82.46
2022-10-10T00:06:23.477Z,82.51
2022-10-10T00:08:50.925Z,82.81
2022-10-10T00:11:20.900Z,83.07
2022-10-10T00:13:49.363Z,82.80
2022-10-10T00:16:17.843Z,83.12
2022-10-10T00:18:45.367Z,83.27
2022-10-10T00:21:13.940Z,83.69
2022-10-10T00:23:42.046Z,83.28
2022-10-10T00:26:09.617Z,83.33
2022-10-10T00:28:39.053Z,83.56
2022-10-10T00:31:09.897Z,83.46
2022-10-10T00:33:37.852Z,83.97
2022-10-10T00:36:06.949Z,84.06
2022-10-10T00:38:34.105Z,83.83
2022-10-10T00:41:01.302Z,83.96
2022-10-10T00:43:30.030Z,83.71
2022-10-10T00:45:57.097Z,83.92
2022-10-10T00:48:32.757Z,83.79
2022-10-10T00:51:08.276Z,84.02
2022-10-10T00:53:43.506Z,83.97
2022-10-10T00:56:13.411Z,84.03
2022-10-10T00:58:44.033Z,84.04
2022-10-10T01:01:11.636Z,84.10
2022-10-10T01:03:38.614Z,84.23
2022-10-10T01:06:06.644Z,84.56
2022-10-10T01:08:33.880Z,84.93
2022-10-10T01:11:27.886Z,85.06
2022-10-10T01:14:21.882Z,85.25
2022-10-10T01:17:11.493Z,84.72
2022-10-10T01:20:26.366Z,85.13
2022-10-10T01:23:11.678Z,85.30
2022-10-10T01:26:19.000Z,85.88
2022-10-10T01:28:51.424Z,86.25
2022-10-10T01:31:22.795Z,86.71
2022-10-10T01:34:09.848Z,87.64
2022-10-10T01:37:08.908Z,87.44
2022-10-10T01:39:59.405Z,87.77
2022-10-10T01:42:43.821Z,88.01
2022-10-10T01:45:11.357Z,87.94
2022-10-10T01:47:39.199Z,88.16
2022-10-10T01:50:12.798Z,87.42
2022-10-10T01:53:01.639Z,88.18
2022-10-10T01:56:08.200Z,87.23
2022-10-10T01:59:16.852Z,87.07
2022-10-10T02:01:51.618Z,86.50
2022-10-10T02:04:57.082Z,86.43
2022-10-10T02:08:11.978Z,86.13
2022-10-10T02:10:49.464Z,85.96
2022-10-10T02:13:18.880Z,85.54
2022-10-10T02:15:52.124Z,85.67
2022-10-10T02:18:23.545Z,85.96
2022-10-10T02:20:51.920Z,86.22
2022-10-10T02:23:21.923Z,86.33
2022-10-10T02:25:54.088Z,86.46
2022-10-10T02:28:38.877Z,86.71
2022-10-10T02:31:17.108Z,86.28
2022-10-10T02:34:20.212Z,86.03
2022-10-10T02:36:53.262Z,86.51
2022-10-10T02:39:27.517Z,86.59
2022-10-10T02:41:54.623Z,86.96
2022-10-10T02:44:22.693Z,86.64
2022-10-10T02:46:49.805Z,86.34
2022-10-10T02:49:28.508Z,86.18
2022-10-10T02:51:55.372Z,86.40
2022-10-10T02:54:22.301Z,86.42
2022-10-10T02:56:49.309Z,86.06
2022-10-10T02:59:16.147Z,86.16
2022-10-10T03:01:43.732Z,86.50
2022-10-10T03:04:10.946Z,86.36
2022-10-10T03:06:37.723Z,86.13
2022-10-10T03:09:05.980Z,86.30
2022-10-10T03:11:33.011Z,85.75
2022-10-10T03:14:00.165Z,85.96
2022-10-10T03:16:27.056Z,86.11
2022-10-10T03:18:53.866Z,86.31
2022-10-10T03:21:20.843Z,86.23
2022-10-10T03:23:47.629Z,86.68
2022-10-10T03:26:14.546Z,85.91
2022-10-10T03:28:41.860Z,87.11
2022-10-10T03:31:08.828Z,86.27
2022-10-10T03:33:35.820Z,86.52
2022-10-10T03:36:02.784Z,86.62
2022-10-10T03:38:29.560Z,86.20
2022-10-10T03:40:56.697Z,86.64
2022-10-10T03:43:23.458Z,86.37
2022-10-10T03:45:50.802Z,86.58
2022-10-10T03:48:18.115Z,86.48
2022-10-10T03:50:44.919Z,86.82
2022-10-10T03:53:11.797Z,86.45
2022-10-10T03:55:43.146Z,86.37
2022-10-10T03:58:11.208Z,86.51
2022-10-10T04:00:38.786Z,86.59
2022-10-10T04:03:06.752Z,86.34
2022-10-10T04:05:35.978Z,86.62
2022-10-10T04:08:04.309Z,86.41
2022-10-10T04:10:31.872Z,86.56
2022-10-10T04:12:59.017Z,86.59
2022-10-10T04:15:26.099Z,86.82
2022-10-10T04:17:53.073Z,86.45
2022-10-10T04:20:20.060Z,86.55
2022-10-10T04:22:46.836Z,86.66
2022-10-10T04:25:13.756Z,86.38
2022-10-10T04:27:40.649Z,86.51
2022-10-10T04:30:08.247Z,86.15
2022-10-10T04:32:35.037Z,85.97
2022-10-10T04:35:01.989Z,85.84
2022-10-10T04:37:28.808Z,85.74
2022-10-10T04:39:56.112Z,85.83
2022-10-10T04:42:23.404Z,85.83
2022-10-10T04:44:50.379Z,86.04
2022-10-10T04:47:17.544Z,85.67
2022-10-10T04:49:44.650Z,86.15
2022-10-10T04:52:12.068Z,86.40
2022-10-10T04:54:38.893Z,86.32
2022-10-10T04:57:05.929Z,86.05
2022-10-10T04:59:32.856Z,86.19
2022-10-10T05:02:01.957Z,86.38
2022-10-10T05:04:29.277Z,86.36
2022-10-10T05:06:56.073Z,86.85
2022-10-10T05:09:27.263Z,86.44
2022-10-10T05:11:54.705Z,86.62
2022-10-10T05:14:21.505Z,86.89
2022-10-10T05:16:48.281Z,86.86
2022-10-10T05:19:15.389Z,86.95
2022-10-10T05:21:42.191Z,86.93
2022-10-10T05:24:08.997Z,86.95
2022-10-10T05:26:40.892Z,86.82
2022-10-10T05:29:09.924Z,87.20
2022-10-10T05:31:36.760Z,87.17
2022-10-10T05:34:03.630Z,87.20
2022-10-10T05:36:30.492Z,87.00
2022-10-10T05:38:57.895Z,86.81
2022-10-10T05:41:24.877Z,87.11
2022-10-10T05:43:51.684Z,87.49
2022-10-10T05:46:20.452Z,87.47
2022-10-10T05:48:47.224Z,87.66
2022-10-10T05:51:14.156Z,87.61
2022-10-10T05:53:41.101Z,87.44
2022-10-10T05:56:08.123Z,87.35
2022-10-10T05:58:35.221Z,87.33
2022-10-10T06:01:05.401Z,87.48
2022-10-10T06:03:33.504Z,87.82
2022-10-10T06:06:01.070Z,87.70
2022-10-10T06:08:28.670Z,88.26
2022-10-10T06:11:08.234Z,87.93
2022-10-10T06:13:35.523Z,87.82
2022-10-10T06:16:02.398Z,87.85
2022-10-10T06:18:29.891Z,87.69
2022-10-10T06:21:03.551Z,87.76
2022-10-10T06:23:30.400Z,87.55
2022-10-10T06:25:57.240Z,87.73
2022-10-10T06:28:24.165Z,87.99
2022-10-10T06:30:51.719Z,87.98
2022-10-10T06:33:19.654Z,88.02
2022-10-10T06:35:49.162Z,88.10
2022-10-10T06:38:17.165Z,88.07
2022-10-10T06:40:44.400Z,87.98
2022-10-10T06:43:13.594Z,88.42
2022-10-10T06:45:45.324Z,88.17
2022-10-10T06:48:14.544Z,88.49
2022-10-10T06:50:41.684Z,88.46
2022-10-10T06:53:08.673Z,88.68
2022-10-10T06:55:35.525Z,88.75
2022-10-10T06:58:02.367Z,89.12
2022-10-10T07:00:29.220Z,89.10
2022-10-10T07:02:55.999Z,89.26
2022-10-10T07:05:22.799Z,89.33
2022-10-10T07:07:52.878Z,89.65
2022-10-10T07:10:19.676Z,89.31
2022-10-10T07:12:46.484Z,89.15
2022-10-10T07:15:13.718Z,88.58
2022-10-10T07:17:40.697Z,88.59
2022-10-10T07:20:08.345Z,88.51
2022-10-10T07:22:35.390Z,88.56
2022-10-10T07:25:02.182Z,88.30
2022-10-10T07:27:29.173Z,88.44
2022-10-10T07:29:56.094Z,88.21
2022-10-10T07:32:22.887Z,87.52
2022-10-10T07:34:51.110Z,87.16
2022-10-10T07:37:18.075Z,86.35
2022-10-10T07:39:45.026Z,85.46
2022-10-10T07:42:12.003Z,84.43
2022-10-10T07:44:38.784Z,83.83
2022-10-10T07:47:05.804Z,82.75
2022-10-10T07:49:32.812Z,81.99
2022-10-10T07:52:01.604Z,81.60
2022-10-10T07:54:30.105Z,80.91
2022-10-10T07:56:58.092Z,80.25
2022-10-10T07:59:25.601Z,80.22
2022-10-10T08:01:52.473Z,80.11
2022-10-10T08:04:19.506Z,80.16
2022-10-10T08:06:46.427Z,80.08
2022-10-10T08:09:13.385Z,79.65
2022-10-10T08:11:40.200Z,80.04
2022-10-10T08:14:07.058Z,79.17
2022-10-10T08:16:36.951Z,79.70
2022-10-10T08:19:04.705Z,79.87
2022-10-10T08:21:31.757Z,79.96
2022-10-10T08:23:58.549Z,79.67
2022-10-10T08:26:25.548Z,79.16
2022-10-10T08:28:52.465Z,78.98
2022-10-10T08:31:22.092Z,78.37
2022-10-10T08:33:51.006Z,78.77
2022-10-10T08:36:22.787Z,78.97
2022-10-10T08:38:52.742Z,78.46
2022-10-10T08:41:34.596Z,78.29
2022-10-10T08:44:13.173Z,78.43
2022-10-10T08:47:10.245Z,77.57
2022-10-10T08:49:49.314Z,77.75
2022-10-10T08:52:39.057Z,78.06
2022-10-10T08:55:33.782Z,78.30
2022-10-10T08:58:12.630Z,77.11
2022-10-10T09:00:59.812Z,77.88
2022-10-10T09:03:57.920Z,77.22
2022-10-10T09:07:04.867Z,77.40
2022-10-10T09:09:58.323Z,77.69
2022-10-10T09:12:42.061Z,77.82
2022-10-10T09:15:11.841Z,78.21
2022-10-10T09:18:23.588Z,78.32
2022-10-10T09:21:17.503Z,79.08
2022-10-10T09:24:17.484Z,78.35
2022-10-10T09:26:57.484Z,78.74
2022-10-10T09:29:51.153Z,79.17
2022-10-10T09:33:17.655Z,79.46
2022-10-10T09:35:46.726Z,79.12
2022-10-10T09:38:33.593Z,79.11
2022-10-10T09:41:08.287Z,79.17
2022-10-10T09:43:35.852Z,79.75
2022-10-10T09:46:02.872Z,79.23
2022-10-10T09:48:36.813Z,79.21
2022-10-10T09:51:08.495Z,78.48
2022-10-10T09:53:35.299Z,78.80
2022-10-10T09:56:05.041Z,79.04
2022-10-10T09:58:46.992Z,79.29
2022-10-10T10:01:22.553Z,78.93
2022-10-10T10:04:34.264Z,79.16
2022-10-10T10:07:20.791Z,78.92
2022-10-10T10:09:54.546Z,78.83
2022-10-10T10:12:32.155Z,78.86
2022-10-10T10:15:05.126Z,78.67
2022-10-10T10:17:32.058Z,78.64
2022-10-10T10:19:58.977Z,78.91
2022-10-10T10:22:36.100Z,78.68
2022-10-10T10:25:39.108Z,78.82
2022-10-10T10:28:12.008Z,78.56
2022-10-10T10:30:40.249Z,78.16
2022-10-10T10:33:18.801Z,78.01
2022-10-10T10:35:54.616Z,77.31
2022-10-10T10:38:33.160Z,77.10
2022-10-10T10:41:35.634Z,76.93
2022-10-10T10:44:41.155Z,76.07
2022-10-10T10:47:29.425Z,74.20
2022-10-10T10:50:20.884Z,73.56
2022-10-10T10:53:11.090Z,69.28
2022-10-10T10:55:48.750Z,68.99
2022-10-10T10:59:38.476Z,69.43
2022-10-10T11:01:58.719Z,68.03
2022-10-10T11:05:19.929Z,67.81
2022-10-10T11:08:13.207Z,65.22
2022-10-10T11:11:09.069Z,64.48
2022-10-10T11:14:00.318Z,63.22
2022-10-10T11:16:48.905Z,63.36
2022-10-10T11:19:27.213Z,64.61
2022-10-10T11:22:00.339Z,63.99
2022-10-10T11:25:02.739Z,63.05
2022-10-10T11:28:26.747Z,63.56
2022-10-10T11:31:03.599Z,63.69
2022-10-10T11:33:43.004Z,62.38
2022-10-10T11:36:19.268Z,62.61
2022-10-10T11:38:51.626Z,61.26
2022-10-10T11:41:26.150Z,59.15
2022-10-10T11:44:19.083Z,58.83
2022-10-10T11:47:00.690Z,59.44
2022-10-10T11:49:52.609Z,60.72
2022-10-10T11:53:00.382Z,59.79
2022-10-10T11:55:32.172Z,59.06
2022-10-10T11:58:04.974Z,60.20
2022-10-10T12:00:42.767Z,60.71
2022-10-10T12:03:10.144Z,61.24
2022-10-10T12:05:42.828Z,58.60
2022-10-10T12:08:19.014Z,55.99
2022-10-10T12:10:58.886Z,55.41
2022-10-10T12:13:32.779Z,54.71
2022-10-10T12:16:07.654Z,54.87
2022-10-10T12:19:16.149Z,54.29
2022-10-10T12:21:59.685Z,54.04
2022-10-10T12:24:30.762Z,54.04
2022-10-10T12:26:57.507Z,55.23
2022-10-10T12:29:51.148Z,54.26
2022-10-10T12:32:24.752Z,55.96
2022-10-10T12:34:51.506Z,55.14
2022-10-10T12:37:32.795Z,54.81
2022-10-10T12:40:21.729Z,54.12
2022-10-10T12:42:48.432Z,54.45
2022-10-10T12:45:31.237Z,55.07
2022-10-10T12:48:05.471Z,54.20
2022-10-10T12:50:40.276Z,54.02
2022-10-10T12:53:18.658Z,54.63
2022-10-10T12:55:49.159Z,55.43
2022-10-10T12:58:27.437Z,56.22
2022-10-10T13:01:19.815Z,55.28
2022-10-10T13:03:50.250Z,55.44
2022-10-10T13:06:39.518Z,56.05
2022-10-10T13:09:16.040Z,56.56
2022-10-10T13:11:55.024Z,55.14
2022-10-10T13:14:23.344Z,54.47
2022-10-10T13:16:50.163Z,53.14
2022-10-10T13:19:26.239Z,53.48
2022-10-10T13:21:55.911Z,54.20
2022-10-10T13:24:30.635Z,54.13
2022-10-10T13:26:57.931Z,51.22
2022-10-10T13:29:31.516Z,53.15
2022-10-10T13:32:06.291Z,53.58
2022-10-10T13:34:37.246Z,53.06
2022-10-10T13:37:05.936Z,52.34
2022-10-10T13:39:38.108Z,53.99
2022-10-10T13:42:08.779Z,52.28
2022-10-10T13:44:51.655Z,48.66
2022-10-10T13:47:46.529Z,48.95
2022-10-10T13:50:35.321Z,48.58
2022-10-10T13:53:26.957Z,48.53
2022-10-10T13:56:31.028Z,46.16
2022-10-10T13:59:11.021Z,47.70
2022-10-10T14:01:45.171Z,49.28
2022-10-10T14:04:27.253Z,49.71
2022-10-10T14:07:06.916Z,50.65
2022-10-10T14:09:41.273Z,50.99
2022-10-10T14:12:18.900Z,51.08
2022-10-10T14:14:51.631Z,52.02
2022-10-10T14:17:18.811Z,51.92
2022-10-10T14:19:47.837Z,52.67
2022-10-10T14:22:14.603Z,52.95
2022-10-10T14:24:41.400Z,51.47
2022-10-10T14:27:24.908Z,50.74
2022-10-10T14:29:54.602Z,51.04
2022-10-10T14:32:22.207Z,51.50
2022-10-10T14:34:49.119Z,51.47
2022-10-10T14:37:25.397Z,51.70
2022-10-10T14:39:52.899Z,51.40
2022-10-10T14:42:21.651Z,51.54
2022-10-10T14:44:48.491Z,51.30
2022-10-10T14:47:19.379Z,51.45
2022-10-10T14:49:46.720Z,52.42
2022-10-10T14:52:13.777Z,52.12
2022-10-10T14:54:40.979Z,52.42
2022-10-10T14:57:10.328Z,53.01
2022-10-10T14:59:46.156Z,53.62
2022-10-10T15:02:19.786Z,52.41
2022-10-10T15:04:46.672Z,52.16
2022-10-10T15:07:15.023Z,52.54
2022-10-10T15:12:41.831Z,53.16
2022-10-10T15:15:10.973Z,53.50
2022-10-10T15:17:37.836Z,53.87
2022-10-10T15:20:08.419Z,54.71
2022-10-10T15:22:35.962Z,55.24
2022-10-10T15:25:03.323Z,55.46
2022-10-10T15:27:30.156Z,55.49
2022-10-10T15:29:57.165Z,55.50
2022-10-10T15:32:24.229Z,54.64
2022-10-10T15:34:52.411Z,53.90
2022-10-10T15:37:19.608Z,52.43
2022-10-10T15:39:46.549Z,52.29
2022-10-10T15:42:18.516Z,53.64
2022-10-10T15:44:49.934Z,53.70
2022-10-10T15:47:18.906Z,53.54
2022-10-10T15:49:45.833Z,54.32
2022-10-10T15:52:13.342Z,53.80
2022-10-10T15:54:40.330Z,53.84
2022-10-10T15:57:07.162Z,54.52
2022-10-10T15:59:35.745Z,54.95
2022-10-10T16:02:04.696Z,55.45
2022-10-10T16:04:31.534Z,56.08
2022-10-10T16:09:45.171Z,56.50
2022-10-10T16:12:12.067Z,56.77
2022-10-10T16:14:39.201Z,56.62
2022-10-10T16:17:05.984Z,55.42
2022-10-10T16:19:32.850Z,55.32
2022-10-10T16:21:59.698Z,55.95
2022-10-10T16:24:26.472Z,56.04
2022-10-10T16:26:53.473Z,56.62
2022-10-10T16:29:20.860Z,57.15
2022-10-10T16:31:47.780Z,57.65
2022-10-10T16:34:16.161Z,57.78
2022-10-10T16:36:43.129Z,58.21
2022-10-10T16:39:10.251Z,58.77
2022-10-10T16:41:52.672Z,59.07
2022-10-10T16:44:19.511Z,59.57
2022-10-10T16:46:46.944Z,59.41
2022-10-10T16:49:16.865Z,59.86
2022-10-10T16:51:43.855Z,59.97
2022-10-10T16:54:10.722Z,59.84
2022-10-10T16:56:37.755Z,59.97
2022-10-10T16:59:04.734Z,59.99
2022-10-10T17:01:31.861Z,59.80
2022-10-10T17:04:00.698Z,59.81
2022-10-10T17:06:34.259Z,59.74
2022-10-10T17:09:02.956Z,59.86
2022-10-10T17:11:30.221Z,60.17
2022-10-10T17:13:57.157Z,60.25
2022-10-10T17:19:14.530Z,60.84
2022-10-10T17:21:41.349Z,61.25
2022-10-10T17:24:08.578Z,61.57
2022-10-10T17:26:35.509Z,61.67
2022-10-10T17:29:02.317Z,61.64
2022-10-10T17:31:29.529Z,62.20
2022-10-10T17:33:57.637Z,62.73
2022-10-10T17:36:27.805Z,62.61
2022-10-10T17:39:01.599Z,63.15
2022-10-10T17:41:29.954Z,63.33
2022-10-10T17:43:57.426Z,63.77
2022-10-10T17:46:34.702Z,64.01
2022-10-10T17:49:05.267Z,64.22
2022-10-10T17:51:32.115Z,64.08
2022-10-10T17:54:00.604Z,64.52
2022-10-10T17:56:27.845Z,64.68
2022-10-10T17:58:54.992Z,64.89
2022-10-10T18:01:22.652Z,65.29
2022-10-10T18:03:49.889Z,65.62
2022-10-10T18:06:21.720Z,65.75
2022-10-10T18:08:51.430Z,66.08
2022-10-10T18:11:25.598Z,66.59
2022-10-10T18:13:53.646Z,66.63
2022-10-10T18:16:23.183Z,66.56
2022-10-10T18:18:52.118Z,66.92
2022-10-10T18:21:21.743Z,67.21
2022-10-10T18:23:49.719Z,67.63
2022-10-10T18:26:23.749Z,68.28
2022-10-10T18:28:52.688Z,68.12
2022-10-10T18:31:26.410Z,68.30
2022-10-10T18:33:54.181Z,68.46
2022-10-10T18:36:25.940Z,68.75
2022-10-10T18:38:53.194Z,69.02
2022-10-10T18:41:23.525Z,69.09
2022-10-10T18:43:51.839Z,69.71
2022-10-10T18:46:24.020Z,70.43
2022-10-10T18:48:54.002Z,70.57
2022-10-10T18:51:26.381Z,70.61
2022-10-10T18:54:05.886Z,70.89
2022-10-10T18:56:34.054Z,71.02
2022-10-10T18:59:06.624Z,70.95
2022-10-10T19:01:37.052Z,71.29
2022-10-10T19:04:07.393Z,71.27
2022-10-10T19:06:36.356Z,71.18
2022-10-10T19:09:06.373Z,71.30
2022-10-10T19:11:39.322Z,71.49
2022-10-10T19:14:10.418Z,71.87
2022-10-10T19:16:42.257Z,71.62
2022-10-10T19:19:13.028Z,71.71
2022-10-10T19:21:40.420Z,72.25
2022-10-10T19:24:09.008Z,72.26
2022-10-10T19:26:37.226Z,72.16
2022-10-10T19:29:07.521Z,72.56
2022-10-10T19:31:36.559Z,72.58
2022-10-10T19:34:04.080Z,72.38
2022-10-10T19:36:31.001Z,72.98
2022-10-10T19:39:00.182Z,73.14
2022-10-10T19:41:27.390Z,73.35
2022-10-10T19:43:54.254Z,73.60
2022-10-10T19:46:23.333Z,73.38
2022-10-10T19:48:51.918Z,73.38
2022-10-10T19:51:19.619Z,73.35
2022-10-10T19:53:47.309Z,73.51
2022-10-10T19:56:26.613Z,73.51
2022-10-10T19:58:59.749Z,73.97
2022-10-10T20:01:29.985Z,73.65
2022-10-10T20:03:58.095Z,74.30
2022-10-10T20:06:25.456Z,74.59
2022-10-10T20:08:52.285Z,74.57
2022-10-10T20:11:20.466Z,74.71
2022-10-10T20:13:49.584Z,75.05
2022-10-10T20:16:16.685Z,75.70
2022-10-10T20:18:43.937Z,75.54
2022-10-10T20:21:23.499Z,75.33
2022-10-10T20:23:51.072Z,75.59
2022-10-10T20:26:23.468Z,75.25
2022-10-10T20:28:51.931Z,75.49
2022-10-10T20:31:29.237Z,75.35
2022-10-10T20:33:58.976Z,75.59
2022-10-10T20:36:26.258Z,75.75
2022-10-10T20:39:00.925Z,75.83
2022-10-10T20:41:32.081Z,75.77
2022-10-10T20:44:03.189Z,76.03
2022-10-10T20:46:35.618Z,75.93
2022-10-10T20:49:06.424Z,75.87
2022-10-10T20:51:33.313Z,76.22
2022-10-10T20:54:02.697Z,76.47
2022-10-10T20:56:31.607Z,76.39
2022-10-10T20:58:59.917Z,76.13
2022-10-10T21:01:29.415Z,76.61
2022-10-10T21:03:56.355Z,76.47
2022-10-10T21:06:29.025Z,76.24
2022-10-10T21:08:56.861Z,76.56
2022-10-10T21:11:24.359Z,76.80
2022-10-10T21:13:57.480Z,76.73
2022-10-10T21:16:27.978Z,77.01
2022-10-10T21:18:57.909Z,77.25
2022-10-10T21:21:28.394Z,77.74
2022-10-10T21:23:56.743Z,77.35
2022-10-10T21:26:30.009Z,77.60
2022-10-10T21:28:57.615Z,77.53
2022-10-10T21:31:28.324Z,78.10
2022-10-10T21:33:55.971Z,78.16
2022-10-10T21:36:25.355Z,77.96
2022-10-10T21:38:53.623Z,78.26
2022-10-10T21:41:21.725Z,78.82
2022-10-10T21:43:54.864Z,78.94
2022-10-10T21:46:29.794Z,78.60
2022-10-10T21:49:00.501Z,78.70
2022-10-10T21:51:27.401Z,78.73
2022-10-10T21:53:58.848Z,78.81
2022-10-10T21:56:26.588Z,78.95
2022-10-10T21:59:00.160Z,79.10
2022-10-10T22:01:28.130Z,79.03
2022-10-10T22:03:56.516Z,79.34
2022-10-10T22:06:25.195Z,79.52
2022-10-10T22:08:55.042Z,79.00
2022-10-10T22:11:26.153Z,79.33
2022-10-10T22:13:53.004Z,78.99
2022-10-10T22:16:20.856Z,79.12
2022-10-10T22:18:47.880Z,79.52
2022-10-10T22:21:17.268Z,80.15
2022-10-10T22:23:45.026Z,79.69
2022-10-10T22:26:15.190Z,80.02
2022-10-10T22:28:42.199Z,79.83
2022-10-10T22:31:13.069Z,79.71
2022-10-10T22:33:40.630Z,79.58
2022-10-10T22:36:09.018Z,79.94
2022-10-10T22:38:43.919Z,79.80
2022-10-10T22:41:12.491Z,80.07
2022-10-10T22:43:40.101Z,80.06
2022-10-10T22:46:08.195Z,80.26
2022-10-10T22:48:36.001Z,80.46
2022-10-10T22:51:16.608Z,80.28
2022-10-10T22:53:45.846Z,80.38
2022-10-10T22:56:19.436Z,80.50
2022-10-10T22:58:48.172Z,80.52
2022-10-10T23:01:18.787Z,80.22
2022-10-10T23:03:46.580Z,80.16
2022-10-10T23:06:14.030Z,80.14
2022-10-10T23:08:41.023Z,80.04
2022-10-10T23:11:08.300Z,80.35
2022-10-10T23:13:35.113Z,80.51
2022-10-10T23:16:02.407Z,80.72
2022-10-10T23:18:30.603Z,80.99
2022-10-10T23:20:57.404Z,80.95
2022-10-10T23:23:25.287Z,80.62
2022-10-10T23:25:52.320Z,80.61
2022-10-10T23:28:19.528Z,80.40
2022-10-10T23:30:48.407Z,80.47
2022-10-10T23:33:17.153Z,80.38
2022-10-10T23:35:43.988Z,80.35
2022-10-10T23:38:10.959Z,80.37
2022-10-10T23:40:37.780Z,80.38
2022-10-10T23:43:04.731Z,80.40
2022-10-10T23:45:31.913Z,80.43
2022-10-10T23:47:58.681Z,80.66
2022-10-10T23:50:25.563Z,80.86
2022-10-10T23:52:52.816Z,81.08
2022-10-10T23:55:19.617Z,80.94
2022-10-10T23:57:46.392Z,81.12
